createdAt,value
2016-11-08T00:00:01.796Z,4.87
2016-11-08T00:00:23.507Z,4.86
2016-11-08T00:00:45.232Z,4.89
2016-11-08T00:01:06.959Z,4.89
2016-11-08T00:01:28.673Z,4.85
2016-11-08T00:01:50.395Z,4.85
2016-11-08T00:02:12.119Z,4.82
2016-11-08T00:02:33.861Z,4.84
2016-11-08T00:02:55.589Z,4.85
2016-11-08T00:03:17.309Z,4.84
2016-11-08T00:03:39.044Z,4.85
2016-11-08T00:04:00.773Z,4.84
2016-11-08T00:04:22.499Z,4.85
2016-11-08T00:04:44.220Z,4.87
2016-11-08T00:05:05.950Z,4.90
2016-11-08T00:05:27.676Z,4.87
2016-11-08T00:05:49.397Z,4.90
2016-11-08T00:06:11.115Z,4.92
2016-11-08T00:06:32.845Z,4.92
2016-11-08T00:06:54.565Z,4.87
2016-11-08T00:07:16.301Z,4.88
2016-11-08T00:07:38.026Z,4.89
2016-11-08T00:07:59.749Z,4.90
2016-11-08T00:08:21.468Z,4.89
2016-11-08T00:08:43.205Z,4.90
2016-11-08T00:09:04.933Z,4.89
2016-11-08T00:09:26.656Z,4.87
2016-11-08T00:09:48.377Z,4.83
2016-11-08T00:10:10.105Z,4.83
2016-11-08T00:10:31.825Z,4.82
2016-11-08T00:10:53.545Z,4.82
2016-11-08T00:11:15.296Z,4.84
2016-11-08T00:11:37.014Z,4.80
2016-11-08T00:11:58.737Z,4.79
2016-11-08T00:12:20.457Z,4.82
2016-11-08T00:12:42.188Z,4.86
2016-11-08T00:13:03.909Z,4.84
2016-11-08T00:13:25.638Z,4.85
2016-11-08T00:13:49.910Z,4.87
2016-11-08T00:14:11.633Z,4.90
2016-11-08T00:14:33.357Z,4.87
2016-11-08T00:14:55.085Z,4.87
2016-11-08T00:15:16.957Z,4.84
2016-11-08T00:15:38.683Z,4.85
2016-11-08T00:16:00.403Z,4.87
2016-11-08T00:16:22.131Z,4.84
2016-11-08T00:16:43.846Z,4.79
2016-11-08T00:17:05.563Z,4.77
2016-11-08T00:17:27.294Z,4.80
2016-11-08T00:17:49.022Z,4.76
2016-11-08T00:18:10.759Z,4.78
2016-11-08T00:18:32.483Z,4.78
2016-11-08T00:18:54.205Z,4.82
2016-11-08T00:19:15.942Z,4.84
2016-11-08T00:19:37.657Z,4.82
2016-11-08T00:19:59.488Z,4.82
2016-11-08T00:20:21.209Z,4.85
2016-11-08T00:20:42.962Z,4.88
2016-11-08T00:21:04.679Z,4.86
2016-11-08T00:21:26.409Z,4.84
2016-11-08T00:21:48.134Z,4.82
2016-11-08T00:22:09.879Z,4.79
2016-11-08T00:22:31.599Z,4.82
2016-11-08T00:22:53.329Z,4.85
2016-11-08T00:23:15.054Z,4.85
2016-11-08T00:23:36.783Z,4.83
2016-11-08T00:23:58.499Z,4.84
2016-11-08T00:24:20.236Z,4.83
2016-11-08T00:24:42.113Z,4.86
2016-11-08T00:25:03.846Z,4.83
2016-11-08T00:25:25.567Z,4.79
2016-11-08T00:25:47.294Z,4.84
2016-11-08T00:26:09.018Z,4.85
2016-11-08T00:26:30.743Z,4.80
2016-11-08T00:26:52.480Z,4.80
2016-11-08T00:27:14.242Z,4.81
2016-11-08T00:27:35.973Z,4.78
2016-11-08T00:27:57.709Z,4.80
2016-11-08T00:28:19.432Z,4.80
2016-11-08T00:28:41.165Z,4.83
2016-11-08T00:29:02.891Z,4.82
2016-11-08T00:29:24.620Z,4.82
2016-11-08T00:29:46.336Z,4.82
2016-11-08T00:30:08.063Z,4.87
2016-11-08T00:30:29.793Z,4.82
2016-11-08T00:30:51.530Z,4.76
2016-11-08T00:31:13.265Z,4.76
2016-11-08T00:31:34.986Z,4.78
2016-11-08T00:31:56.705Z,4.75
2016-11-08T00:32:18.421Z,4.78
2016-11-08T00:32:40.151Z,4.82
2016-11-08T00:33:01.886Z,4.80
2016-11-08T00:33:23.610Z,4.78
2016-11-08T00:33:45.334Z,4.78
2016-11-08T00:34:07.062Z,4.75
2016-11-08T00:34:28.777Z,4.75
2016-11-08T00:34:50.499Z,4.75
2016-11-08T00:35:12.220Z,4.72
2016-11-08T00:35:33.964Z,4.71
2016-11-08T00:35:55.676Z,4.74
2016-11-08T00:36:17.395Z,4.74
2016-11-08T00:36:39.115Z,4.76
2016-11-08T00:37:00.851Z,4.76
2016-11-08T00:37:22.574Z,4.74
2016-11-08T00:37:44.299Z,4.75
2016-11-08T00:38:06.036Z,4.75
2016-11-08T00:38:27.750Z,4.76
2016-11-08T00:38:49.473Z,4.78
2016-11-08T00:39:11.197Z,4.82
2016-11-08T00:39:32.994Z,4.84
2016-11-08T00:39:54.716Z,4.86
2016-11-08T00:40:16.436Z,4.84
2016-11-08T00:40:38.153Z,4.83
2016-11-08T00:40:59.896Z,4.84
2016-11-08T00:41:21.616Z,4.85
2016-11-08T00:41:43.337Z,4.87
2016-11-08T00:42:05.064Z,4.87
2016-11-08T00:42:26.789Z,4.85
2016-11-08T00:42:48.511Z,4.83
2016-11-08T00:43:10.228Z,4.82
2016-11-08T00:43:31.959Z,4.78
2016-11-08T00:43:53.675Z,4.74
2016-11-08T00:44:15.395Z,4.72
2016-11-08T00:44:37.118Z,4.76
2016-11-08T00:44:58.867Z,4.79
2016-11-08T00:45:20.564Z,4.77
2016-11-08T00:45:42.292Z,4.76
2016-11-08T00:46:04.013Z,4.77
2016-11-08T00:46:25.757Z,4.76
2016-11-08T00:46:47.477Z,4.76
2016-11-08T00:47:09.196Z,4.77
2016-11-08T00:47:30.914Z,4.75
2016-11-08T00:47:52.640Z,4.79
2016-11-08T00:48:14.384Z,4.79
2016-11-08T00:48:36.124Z,4.82
2016-11-08T00:48:57.864Z,4.77
2016-11-08T00:49:19.703Z,4.76
2016-11-08T00:49:41.438Z,4.74
2016-11-08T00:50:03.190Z,4.74
2016-11-08T00:50:24.923Z,4.75
2016-11-08T00:50:46.641Z,4.76
2016-11-08T00:51:08.374Z,4.75
2016-11-08T00:51:30.108Z,4.74
2016-11-08T00:51:51.838Z,4.73
2016-11-08T00:52:13.559Z,4.74
2016-11-08T00:52:40.050Z,4.74
2016-11-08T00:53:01.769Z,4.75
2016-11-08T00:53:23.498Z,4.77
2016-11-08T00:53:45.216Z,4.77
2016-11-08T00:54:06.934Z,4.79
2016-11-08T00:54:28.655Z,4.76
2016-11-08T00:54:50.381Z,4.76
2016-11-08T00:55:12.103Z,4.74
2016-11-08T00:55:33.832Z,4.68
2016-11-08T00:55:55.564Z,4.65
2016-11-08T00:56:17.297Z,4.66
2016-11-08T00:56:39.015Z,4.67
2016-11-08T00:57:00.738Z,4.66
2016-11-08T00:57:22.451Z,4.70
2016-11-08T00:57:44.199Z,4.73
2016-11-08T00:58:05.943Z,4.74
2016-11-08T00:58:27.673Z,4.76
2016-11-08T00:58:49.398Z,4.74
2016-11-08T00:59:11.124Z,4.72
2016-11-08T00:59:32.861Z,4.67
2016-11-08T00:59:54.592Z,4.66
2016-11-08T01:00:16.312Z,4.66
2016-11-08T01:00:38.043Z,4.68
2016-11-08T01:00:59.761Z,4.69
2016-11-08T01:01:21.480Z,4.67
2016-11-08T01:01:43.203Z,4.67
2016-11-08T01:02:04.924Z,4.67
2016-11-08T01:02:26.644Z,4.65
2016-11-08T01:02:48.359Z,4.70
2016-11-08T01:03:10.090Z,4.67
2016-11-08T01:03:31.800Z,4.68
2016-11-08T01:03:53.523Z,4.69
2016-11-08T01:04:15.248Z,4.70
2016-11-08T01:04:36.973Z,4.68
2016-11-08T01:04:58.689Z,4.70
2016-11-08T01:05:20.417Z,4.70
2016-11-08T01:05:42.135Z,4.68
2016-11-08T01:06:03.861Z,4.66
2016-11-08T01:06:25.582Z,4.67
2016-11-08T01:06:47.319Z,4.70
2016-11-08T01:07:09.043Z,4.70
2016-11-08T01:07:30.761Z,4.66
2016-11-08T01:07:52.495Z,4.66
2016-11-08T01:08:14.216Z,4.65
2016-11-08T01:08:35.935Z,4.67
2016-11-08T01:08:57.656Z,4.70
2016-11-08T01:09:19.453Z,4.67
2016-11-08T01:09:41.176Z,4.65
2016-11-08T01:10:02.896Z,4.65
2016-11-08T01:10:24.615Z,4.67
2016-11-08T01:10:46.334Z,4.66
2016-11-08T01:11:08.059Z,4.62
2016-11-08T01:11:29.789Z,4.62
2016-11-08T01:11:51.525Z,4.60
2016-11-08T01:12:13.253Z,4.63
2016-11-08T01:12:34.977Z,4.61
2016-11-08T01:12:56.705Z,4.61
2016-11-08T01:13:18.421Z,4.61
2016-11-08T01:13:40.148Z,4.62
2016-11-08T01:14:02.004Z,4.60
2016-11-08T01:14:23.729Z,4.59
2016-11-08T01:14:45.452Z,4.60
2016-11-08T01:15:07.180Z,4.58
2016-11-08T01:15:28.991Z,4.63
2016-11-08T01:15:50.705Z,4.64
2016-11-08T01:16:12.430Z,4.63
2016-11-08T01:16:34.150Z,4.61
2016-11-08T01:16:55.880Z,4.62
2016-11-08T01:17:17.603Z,4.63
2016-11-08T01:17:39.334Z,4.68
2016-11-08T01:18:01.067Z,4.67
2016-11-08T01:18:22.823Z,4.66
2016-11-08T01:18:44.546Z,4.69
2016-11-08T01:19:06.329Z,4.65
2016-11-08T01:19:28.056Z,4.62
2016-11-08T01:19:49.776Z,4.61
2016-11-08T01:20:11.504Z,4.59
2016-11-08T01:20:33.225Z,4.60
2016-11-08T01:20:54.946Z,4.58
2016-11-08T01:21:16.670Z,4.53
2016-11-08T01:21:38.396Z,4.55
2016-11-08T01:22:00.118Z,4.53
2016-11-08T01:22:21.842Z,4.54
2016-11-08T01:22:43.568Z,4.59
2016-11-08T01:23:05.291Z,4.60
2016-11-08T01:23:27.048Z,4.60
2016-11-08T01:23:48.771Z,4.57
2016-11-08T01:24:10.497Z,4.55
2016-11-08T01:24:32.218Z,4.56
2016-11-08T01:24:53.945Z,4.57
2016-11-08T01:25:15.683Z,4.58
2016-11-08T01:25:37.410Z,4.55
2016-11-08T01:25:59.128Z,4.57
2016-11-08T01:26:20.852Z,4.63
2016-11-08T01:26:42.571Z,4.61
2016-11-08T01:27:04.294Z,4.61
2016-11-08T01:27:26.030Z,4.61
2016-11-08T01:27:47.748Z,4.59
2016-11-08T01:28:09.471Z,4.56
2016-11-08T01:28:31.186Z,4.56
2016-11-08T01:28:52.918Z,4.55
2016-11-08T01:29:14.633Z,4.54
2016-11-08T01:29:36.352Z,4.58
2016-11-08T01:29:58.098Z,4.61
2016-11-08T01:30:19.821Z,4.60
2016-11-08T01:30:41.541Z,4.62
2016-11-08T01:31:03.263Z,4.60
2016-11-08T01:31:24.982Z,4.58
2016-11-08T01:31:46.704Z,4.60
2016-11-08T01:32:08.425Z,4.62
2016-11-08T01:32:30.147Z,4.66
2016-11-08T01:32:51.859Z,4.69
2016-11-08T01:33:13.588Z,4.67
2016-11-08T01:33:35.304Z,4.67
2016-11-08T01:33:57.024Z,4.62
2016-11-08T01:34:18.752Z,4.61
2016-11-08T01:34:40.514Z,4.61
2016-11-08T01:35:02.230Z,4.58
2016-11-08T01:35:23.951Z,4.60
2016-11-08T01:35:45.673Z,4.59
2016-11-08T01:36:07.390Z,4.59
2016-11-08T01:36:29.115Z,4.58
2016-11-08T01:36:50.849Z,4.55
2016-11-08T01:37:12.580Z,4.56
2016-11-08T01:37:34.302Z,4.60
2016-11-08T01:37:56.065Z,4.60
2016-11-08T01:38:17.789Z,4.62
2016-11-08T01:38:39.528Z,4.63
2016-11-08T01:39:01.260Z,4.64
2016-11-08T01:39:22.978Z,4.63
2016-11-08T01:39:44.711Z,4.66
2016-11-08T01:40:06.426Z,4.62
2016-11-08T01:40:28.157Z,4.58
2016-11-08T01:40:49.871Z,4.57
2016-11-08T01:41:11.592Z,4.51
2016-11-08T01:41:33.310Z,4.52
2016-11-08T01:41:55.028Z,4.52
2016-11-08T01:42:16.747Z,4.57
2016-11-08T01:42:38.467Z,4.55
2016-11-08T01:43:00.188Z,4.54
2016-11-08T01:43:21.906Z,4.55
2016-11-08T01:43:43.625Z,4.53
2016-11-08T01:44:05.357Z,4.53
2016-11-08T01:44:27.081Z,4.55
2016-11-08T01:44:48.806Z,4.56
2016-11-08T01:45:10.531Z,4.55
2016-11-08T01:45:32.254Z,4.51
2016-11-08T01:45:53.970Z,4.51
2016-11-08T01:46:15.689Z,4.50
2016-11-08T01:46:37.408Z,4.50
2016-11-08T01:46:59.134Z,4.52
2016-11-08T01:47:20.912Z,4.50
2016-11-08T01:47:42.636Z,4.52
2016-11-08T01:48:04.351Z,4.58
2016-11-08T01:48:26.070Z,4.55
2016-11-08T01:48:47.799Z,4.53
2016-11-08T01:49:09.526Z,4.53
2016-11-08T01:49:31.245Z,4.53
2016-11-08T01:49:52.968Z,4.47
2016-11-08T01:50:14.687Z,4.48
2016-11-08T01:50:36.414Z,4.51
2016-11-08T01:50:58.142Z,4.48
2016-11-08T01:51:19.866Z,4.51
2016-11-08T01:51:41.585Z,4.54
2016-11-08T01:52:03.299Z,4.54
2016-11-08T01:52:25.024Z,4.58
2016-11-08T01:52:46.745Z,4.59
2016-11-08T01:53:08.460Z,4.58
2016-11-08T01:53:30.190Z,4.56
2016-11-08T01:53:51.945Z,4.53
2016-11-08T01:54:13.669Z,4.55
2016-11-08T01:54:35.398Z,4.53
2016-11-08T01:54:57.123Z,4.55
2016-11-08T01:55:18.866Z,4.51
2016-11-08T01:55:40.569Z,4.48
2016-11-08T01:56:02.296Z,4.44
2016-11-08T01:56:24.025Z,4.45
2016-11-08T01:56:45.775Z,4.46
2016-11-08T01:57:07.496Z,4.50
2016-11-08T01:57:29.321Z,4.52
2016-11-08T01:57:51.043Z,4.50
2016-11-08T01:58:12.764Z,4.50
2016-11-08T01:58:34.485Z,4.47
2016-11-08T01:58:56.217Z,4.47
2016-11-08T01:59:17.945Z,4.50
2016-11-08T01:59:39.672Z,4.52
2016-11-08T02:00:01.399Z,4.48
2016-11-08T02:00:23.122Z,4.46
2016-11-08T02:00:44.839Z,4.48
2016-11-08T02:01:06.563Z,4.46
2016-11-08T02:01:28.289Z,4.46
2016-11-08T02:01:50.005Z,4.48
2016-11-08T02:02:11.767Z,4.47
2016-11-08T02:02:33.502Z,4.43
2016-11-08T02:02:55.217Z,4.46
2016-11-08T02:03:16.935Z,4.46
2016-11-08T02:03:38.774Z,4.45
2016-11-08T02:04:00.485Z,4.43
2016-11-08T02:04:22.203Z,4.42
2016-11-08T02:04:43.922Z,4.44
2016-11-08T02:05:05.640Z,4.41
2016-11-08T02:05:27.363Z,4.40
2016-11-08T02:05:49.085Z,4.37
2016-11-08T02:06:10.801Z,4.40
2016-11-08T02:06:32.537Z,4.43
2016-11-08T02:06:54.558Z,4.47
2016-11-08T02:07:16.280Z,4.48
2016-11-08T02:07:37.995Z,4.48
2016-11-08T02:07:59.719Z,4.45
2016-11-08T02:08:21.439Z,4.46
2016-11-08T02:08:43.166Z,4.41
2016-11-08T02:09:04.896Z,4.43
2016-11-08T02:09:26.615Z,4.45
2016-11-08T02:09:50.903Z,4.42
2016-11-08T02:10:12.519Z,4.43
2016-11-08T02:10:34.329Z,4.41
2016-11-08T02:10:56.075Z,4.42
2016-11-08T02:11:17.791Z,4.45
2016-11-08T02:11:39.511Z,4.45
2016-11-08T02:12:01.233Z,4.43
2016-11-08T02:12:22.949Z,4.42
2016-11-08T02:12:44.675Z,4.42
2016-11-08T02:13:06.391Z,4.40
2016-11-08T02:13:28.137Z,4.40
2016-11-08T02:13:49.853Z,4.42
2016-11-08T02:14:11.574Z,4.40
2016-11-08T02:14:33.297Z,4.39
2016-11-08T02:14:55.015Z,4.39
2016-11-08T02:15:16.751Z,4.39
2016-11-08T02:15:38.475Z,4.39
2016-11-08T02:16:00.190Z,4.41
2016-11-08T02:16:21.909Z,4.37
2016-11-08T02:16:43.632Z,4.32
2016-11-08T02:17:05.352Z,4.35
2016-11-08T02:17:27.074Z,4.37
2016-11-08T02:17:48.794Z,4.41
2016-11-08T02:18:10.519Z,4.43
2016-11-08T02:18:32.241Z,4.41
2016-11-08T02:18:53.978Z,4.36
2016-11-08T02:19:15.700Z,4.37
2016-11-08T02:19:37.455Z,4.40
2016-11-08T02:19:59.186Z,4.40
2016-11-08T02:20:20.905Z,4.41
2016-11-08T02:20:42.634Z,4.38
2016-11-08T02:21:04.350Z,4.40
2016-11-08T02:21:26.069Z,4.39
2016-11-08T02:21:47.806Z,4.38
2016-11-08T02:22:09.517Z,4.35
2016-11-08T02:22:31.243Z,4.40
2016-11-08T02:22:52.965Z,4.41
2016-11-08T02:23:14.687Z,4.39
2016-11-08T02:23:36.407Z,4.36
2016-11-08T02:23:58.144Z,4.34
2016-11-08T02:24:19.865Z,4.31
2016-11-08T02:24:41.592Z,4.30
2016-11-08T02:25:03.323Z,4.30
2016-11-08T02:25:25.045Z,4.31
2016-11-08T02:25:46.770Z,4.31
2016-11-08T02:26:08.490Z,4.33
2016-11-08T02:26:30.220Z,4.32
2016-11-08T02:26:52.020Z,4.32
2016-11-08T02:27:25.269Z,4.35
2016-11-08T02:27:46.998Z,4.38
2016-11-08T02:28:08.724Z,4.37
2016-11-08T02:28:30.446Z,4.37
2016-11-08T02:28:52.172Z,4.35
2016-11-08T02:29:13.892Z,4.32
2016-11-08T02:29:35.623Z,4.34
2016-11-08T02:29:57.343Z,4.34
2016-11-08T02:30:19.062Z,4.29
2016-11-08T02:30:40.783Z,4.23
2016-11-08T02:31:02.507Z,4.21
2016-11-08T02:31:24.236Z,4.23
2016-11-08T02:31:45.956Z,4.27
2016-11-08T02:32:07.674Z,4.27
2016-11-08T02:32:29.400Z,4.33
2016-11-08T02:32:51.122Z,4.30
2016-11-08T02:33:12.845Z,4.27
2016-11-08T02:33:34.578Z,4.27
2016-11-08T02:33:56.301Z,4.32
2016-11-08T02:34:18.053Z,4.30
2016-11-08T02:34:39.794Z,4.27
2016-11-08T02:35:01.535Z,4.29
2016-11-08T02:35:23.254Z,4.23
2016-11-08T02:35:44.975Z,4.23
2016-11-08T02:36:06.711Z,4.18
2016-11-08T02:36:28.424Z,4.15
2016-11-08T02:36:50.150Z,4.17
2016-11-08T02:37:11.899Z,4.23
2016-11-08T02:37:33.619Z,4.20
2016-11-08T02:37:55.342Z,4.17
2016-11-08T02:38:17.063Z,4.19
2016-11-08T02:38:38.788Z,4.19
2016-11-08T02:39:00.505Z,4.21
2016-11-08T02:39:22.241Z,4.23
2016-11-08T02:39:43.961Z,4.24
2016-11-08T02:40:05.684Z,4.26
2016-11-08T02:40:27.407Z,4.21
2016-11-08T02:40:49.126Z,4.19
2016-11-08T02:41:10.849Z,4.20
2016-11-08T02:41:32.568Z,4.20
2016-11-08T02:41:54.295Z,4.24
2016-11-08T02:42:16.025Z,4.23
2016-11-08T02:42:37.747Z,4.21
2016-11-08T02:42:59.479Z,4.22
2016-11-08T02:43:21.197Z,4.23
2016-11-08T02:43:42.927Z,4.26
2016-11-08T02:44:04.648Z,4.28
2016-11-08T02:44:26.384Z,4.31
2016-11-08T02:44:48.096Z,4.29
2016-11-08T02:45:09.824Z,4.24
2016-11-08T02:45:31.550Z,4.21
2016-11-08T02:45:53.274Z,4.19
2016-11-08T02:46:15.001Z,4.17
2016-11-08T02:46:36.737Z,4.16
2016-11-08T02:46:58.480Z,4.20
2016-11-08T02:47:20.216Z,4.19
2016-11-08T02:47:41.943Z,4.15
2016-11-08T02:48:03.661Z,4.17
2016-11-08T02:48:25.389Z,4.20
2016-11-08T02:48:47.117Z,4.20
2016-11-08T02:49:11.805Z,4.19
2016-11-08T02:51:38.371Z,4.11
2016-11-08T02:52:00.212Z,4.07
2016-11-08T02:52:21.938Z,4.12
2016-11-08T02:52:43.661Z,4.12
2016-11-08T02:53:05.381Z,4.10
2016-11-08T02:53:27.105Z,4.10
2016-11-08T02:53:48.821Z,4.14
2016-11-08T02:54:10.555Z,4.12
2016-11-08T02:54:32.271Z,4.14
2016-11-08T02:54:53.996Z,4.19
2016-11-08T02:55:15.729Z,4.21
2016-11-08T02:55:37.444Z,4.21
2016-11-08T02:55:59.170Z,4.23
2016-11-08T02:56:20.904Z,4.23
2016-11-08T02:56:42.730Z,4.23
2016-11-08T02:57:04.455Z,4.26
2016-11-08T02:57:26.181Z,4.28
2016-11-08T02:57:47.908Z,4.28
2016-11-08T02:58:09.629Z,4.22
2016-11-08T02:58:31.350Z,4.23
2016-11-08T02:58:53.083Z,4.21
2016-11-08T02:59:14.813Z,4.13
2016-11-08T02:59:39.461Z,4.07
2016-11-08T03:00:01.183Z,4.08
2016-11-08T03:00:22.906Z,4.11
2016-11-08T03:00:44.637Z,4.14
2016-11-08T03:01:06.362Z,4.17
2016-11-08T03:01:28.093Z,4.20
2016-11-08T03:01:49.812Z,4.17
2016-11-08T03:02:11.544Z,4.10
2016-11-08T03:02:33.263Z,4.13
2016-11-08T03:02:55.009Z,4.15
2016-11-08T03:03:16.729Z,4.14
2016-11-08T03:03:38.453Z,4.13
2016-11-08T03:04:00.187Z,4.11
2016-11-08T03:04:21.909Z,4.10
2016-11-08T03:04:43.629Z,4.05
2016-11-08T03:05:05.353Z,4.08
2016-11-08T03:05:27.100Z,4.06
2016-11-08T03:05:48.823Z,4.05
2016-11-08T03:06:10.545Z,3.99
2016-11-08T03:06:32.280Z,4.06
2016-11-08T03:06:54.239Z,4.09
2016-11-08T03:07:15.978Z,4.10
2016-11-08T03:07:37.699Z,4.11
2016-11-08T03:07:59.423Z,4.12
2016-11-08T03:08:21.140Z,4.08
2016-11-08T03:08:42.864Z,4.07
2016-11-08T03:09:04.585Z,4.07
2016-11-08T03:09:26.308Z,4.09
2016-11-08T03:09:48.029Z,4.11
2016-11-08T03:10:09.752Z,4.04
2016-11-08T03:10:33.688Z,4.07
2016-11-08T03:10:55.428Z,4.09
2016-11-08T03:11:17.154Z,4.06
2016-11-08T03:11:38.877Z,4.07
2016-11-08T03:12:00.602Z,4.03
2016-11-08T03:12:22.333Z,4.02
2016-11-08T03:12:44.056Z,4.06
2016-11-08T03:13:05.772Z,4.09
2016-11-08T03:13:27.511Z,4.01
2016-11-08T03:13:49.242Z,4.04
2016-11-08T03:14:10.972Z,4.09
2016-11-08T03:14:32.693Z,4.12
2016-11-08T03:14:54.429Z,4.13
2016-11-08T03:15:16.152Z,4.14
2016-11-08T03:15:37.869Z,4.12
2016-11-08T03:15:59.605Z,4.07
2016-11-08T03:16:21.337Z,4.08
2016-11-08T03:16:43.044Z,4.10
2016-11-08T03:17:04.764Z,4.07
2016-11-08T03:17:26.491Z,4.01
2016-11-08T03:17:48.221Z,4.00
2016-11-08T03:18:09.940Z,4.01
2016-11-08T03:18:31.667Z,4.06
2016-11-08T03:18:53.390Z,4.08
2016-11-08T03:19:15.112Z,4.04
2016-11-08T03:19:36.832Z,4.01
2016-11-08T03:19:58.555Z,3.97
2016-11-08T03:20:20.273Z,3.94
2016-11-08T03:20:42.062Z,3.98
2016-11-08T03:21:03.781Z,4.01
2016-11-08T03:21:25.504Z,4.03
2016-11-08T03:21:47.230Z,4.03
2016-11-08T03:22:08.953Z,3.98
2016-11-08T03:22:30.696Z,3.95
2016-11-08T03:22:52.419Z,3.99
2016-11-08T03:23:14.141Z,3.95
2016-11-08T03:23:35.860Z,4.00
2016-11-08T03:23:57.597Z,4.01
2016-11-08T03:24:19.312Z,4.01
2016-11-08T03:24:41.033Z,3.94
2016-11-08T03:25:02.751Z,4.00
2016-11-08T03:25:24.478Z,4.00
2016-11-08T03:25:46.192Z,3.93
2016-11-08T03:26:07.913Z,3.90
2016-11-08T03:26:29.633Z,3.93
2016-11-08T03:26:51.354Z,3.88
2016-11-08T03:27:13.077Z,3.85
2016-11-08T03:27:34.817Z,3.86
2016-11-08T03:27:56.543Z,3.89
2016-11-08T03:28:18.263Z,3.90
2016-11-08T03:28:39.989Z,3.90
2016-11-08T03:29:01.708Z,3.93
2016-11-08T03:29:23.429Z,3.92
2016-11-08T03:29:45.151Z,3.86
2016-11-08T03:30:06.868Z,3.93
2016-11-08T03:30:28.599Z,3.95
2016-11-08T03:30:50.317Z,3.94
2016-11-08T03:31:12.034Z,3.94
2016-11-08T03:31:33.752Z,3.90
2016-11-08T03:31:55.492Z,3.91
2016-11-08T03:32:17.214Z,3.90
2016-11-08T03:32:38.937Z,3.88
2016-11-08T03:33:00.675Z,3.93
2016-11-08T03:33:22.421Z,3.90
2016-11-08T03:33:44.139Z,3.82
2016-11-08T03:34:05.860Z,3.79
2016-11-08T03:34:27.593Z,3.79
2016-11-08T03:34:49.322Z,3.83
2016-11-08T03:35:11.045Z,3.82
2016-11-08T03:35:32.767Z,3.85
2016-11-08T03:35:54.499Z,3.91
2016-11-08T03:36:16.216Z,3.86
2016-11-08T03:36:37.933Z,3.84
2016-11-08T03:36:59.651Z,3.86
2016-11-08T03:37:21.384Z,3.89
2016-11-08T03:37:43.120Z,3.88
2016-11-08T03:38:04.841Z,3.84
2016-11-08T03:38:26.559Z,3.86
2016-11-08T03:38:48.299Z,3.89
2016-11-08T03:39:10.017Z,3.97
2016-11-08T03:39:31.737Z,3.98
2016-11-08T03:39:53.460Z,3.92
2016-11-08T03:40:15.199Z,3.87
2016-11-08T03:40:36.919Z,3.87
2016-11-08T03:40:58.653Z,3.95
2016-11-08T03:41:20.377Z,3.94
2016-11-08T03:41:42.096Z,3.87
2016-11-08T03:42:03.818Z,3.86
2016-11-08T03:42:25.553Z,3.85
2016-11-08T03:42:47.278Z,3.80
2016-11-08T03:43:08.999Z,3.78
2016-11-08T03:43:30.718Z,3.84
2016-11-08T03:43:52.465Z,3.79
2016-11-08T03:44:14.189Z,3.77
2016-11-08T03:44:35.908Z,3.79
2016-11-08T03:44:57.633Z,3.83
2016-11-08T03:45:19.352Z,3.81
2016-11-08T03:45:41.078Z,3.80
2016-11-08T03:46:02.817Z,3.79
2016-11-08T03:46:24.533Z,3.77
2016-11-08T03:46:46.269Z,3.79
2016-11-08T03:47:07.988Z,3.78
2016-11-08T03:47:29.709Z,3.76
2016-11-08T03:47:51.435Z,3.75
2016-11-08T03:48:13.158Z,3.79
2016-11-08T03:48:35.029Z,3.82
2016-11-08T03:48:56.747Z,3.84
2016-11-08T03:49:18.489Z,3.81
2016-11-08T03:49:40.221Z,3.78
2016-11-08T03:50:01.938Z,3.79
2016-11-08T03:50:23.653Z,3.76
2016-11-08T03:50:45.392Z,3.72
2016-11-08T03:51:07.111Z,3.74
2016-11-08T03:51:28.834Z,3.81
2016-11-08T03:51:50.554Z,3.78
2016-11-08T03:52:12.281Z,3.80
2016-11-08T03:52:34.001Z,3.78
2016-11-08T03:52:55.717Z,3.74
2016-11-08T03:53:17.575Z,3.72
2016-11-08T03:53:39.294Z,3.75
2016-11-08T03:54:01.031Z,3.77
2016-11-08T03:54:22.786Z,3.74
2016-11-08T03:54:44.510Z,3.80
2016-11-08T03:55:06.240Z,3.81
2016-11-08T03:55:27.969Z,3.78
2016-11-08T03:55:49.700Z,3.78
2016-11-08T03:56:11.421Z,3.84
2016-11-08T03:56:33.170Z,3.87
2016-11-08T03:56:54.896Z,3.89
2016-11-08T03:57:16.619Z,3.88
2016-11-08T03:57:38.369Z,3.84
2016-11-08T03:58:00.087Z,3.81
2016-11-08T03:58:21.808Z,3.84
2016-11-08T03:58:43.533Z,3.82
2016-11-08T03:59:05.255Z,3.78
2016-11-08T03:59:26.990Z,3.77
2016-11-08T03:59:48.720Z,3.79
2016-11-08T04:00:10.441Z,3.79
2016-11-08T04:00:32.302Z,3.82
2016-11-08T04:00:54.027Z,3.82
2016-11-08T04:01:15.748Z,3.84
2016-11-08T04:01:37.467Z,3.84
2016-11-08T04:01:59.187Z,3.81
2016-11-08T04:02:20.905Z,3.79
2016-11-08T04:02:42.649Z,3.79
2016-11-08T04:03:04.357Z,3.79
2016-11-08T04:03:26.076Z,3.77
2016-11-08T04:03:47.814Z,3.78
2016-11-08T04:04:09.533Z,3.75
2016-11-08T04:04:31.274Z,3.72
2016-11-08T04:04:53.005Z,3.77
2016-11-08T04:05:14.742Z,3.78
2016-11-08T04:05:36.460Z,3.77
2016-11-08T04:05:58.182Z,3.82
2016-11-08T04:06:19.899Z,3.86
2016-11-08T04:06:41.618Z,3.86
2016-11-08T04:07:03.339Z,3.82
2016-11-08T04:07:25.057Z,3.77
2016-11-08T04:07:46.779Z,3.75
2016-11-08T04:08:08.498Z,3.78
2016-11-08T04:08:30.223Z,3.83
2016-11-08T04:08:51.936Z,3.83
2016-11-08T04:09:13.681Z,3.83
2016-11-08T04:09:35.402Z,3.79
2016-11-08T04:09:57.123Z,3.77
2016-11-08T04:10:18.843Z,3.75
2016-11-08T04:10:40.565Z,3.70
2016-11-08T04:11:02.299Z,3.66
2016-11-08T04:11:24.007Z,3.67
2016-11-08T04:11:45.735Z,3.68
2016-11-08T04:12:07.448Z,3.67
2016-11-08T04:12:29.186Z,3.73
2016-11-08T04:12:50.918Z,3.75
2016-11-08T04:13:12.634Z,3.79
2016-11-08T04:13:34.352Z,3.80
2016-11-08T04:13:56.080Z,3.80
2016-11-08T04:14:17.798Z,3.76
2016-11-08T04:14:39.521Z,3.72
2016-11-08T04:15:01.240Z,3.66
2016-11-08T04:15:22.972Z,3.70
2016-11-08T04:15:44.706Z,3.76
2016-11-08T04:16:06.425Z,3.74
2016-11-08T04:16:28.144Z,3.70
2016-11-08T04:16:49.866Z,3.70
2016-11-08T04:17:11.589Z,3.67
2016-11-08T04:17:33.317Z,3.68
2016-11-08T04:17:55.029Z,3.68
2016-11-08T04:18:16.763Z,3.75
2016-11-08T04:18:38.487Z,3.75
2016-11-08T04:19:00.392Z,3.73
2016-11-08T04:19:22.115Z,3.74
2016-11-08T04:19:43.835Z,3.74
2016-11-08T04:20:05.554Z,3.75
2016-11-08T04:20:27.273Z,3.80
2016-11-08T04:20:48.997Z,3.79
2016-11-08T04:21:10.729Z,3.72
2016-11-08T04:21:32.471Z,3.72
2016-11-08T04:21:54.190Z,3.74
2016-11-08T04:22:15.910Z,3.74
2016-11-08T04:22:42.406Z,3.74
2016-11-08T04:23:04.137Z,3.74
2016-11-08T04:23:25.857Z,3.79
2016-11-08T04:23:47.778Z,3.74
2016-11-08T04:24:09.496Z,3.78
2016-11-08T04:24:31.225Z,3.78
2016-11-08T04:24:52.959Z,3.81
2016-11-08T04:25:14.669Z,3.83
2016-11-08T04:25:36.394Z,3.85
2016-11-08T04:25:58.112Z,3.76
2016-11-08T04:26:19.840Z,3.74
2016-11-08T04:26:41.583Z,3.72
2016-11-08T04:27:03.306Z,3.76
2016-11-08T04:27:25.037Z,3.74
2016-11-08T04:27:47.759Z,3.78
2016-11-08T04:28:09.481Z,3.78
2016-11-08T04:28:31.203Z,3.77
2016-11-08T04:28:52.951Z,3.77
2016-11-08T04:29:14.681Z,3.79
2016-11-08T04:29:36.396Z,3.81
2016-11-08T04:29:58.117Z,3.86
2016-11-08T04:30:19.835Z,3.91
2016-11-08T04:30:41.550Z,3.81
2016-11-08T04:31:03.278Z,3.79
2016-11-08T04:31:25.007Z,3.78
2016-11-08T04:31:46.733Z,3.77
2016-11-08T04:32:08.541Z,3.77
2016-11-08T04:32:30.269Z,3.75
2016-11-08T04:32:51.989Z,3.74
2016-11-08T04:33:13.748Z,3.74
2016-11-08T04:33:40.236Z,3.78
2016-11-08T04:34:01.958Z,3.78
2016-11-08T04:34:23.771Z,3.78
2016-11-08T04:34:45.493Z,3.82
2016-11-08T04:35:07.243Z,3.83
2016-11-08T04:35:28.971Z,3.77
2016-11-08T04:35:50.691Z,3.71
2016-11-08T04:36:12.412Z,3.73
2016-11-08T04:36:34.137Z,3.70
2016-11-08T04:36:55.859Z,3.67
2016-11-08T04:37:17.578Z,3.74
2016-11-08T04:37:44.173Z,3.80
2016-11-08T04:38:05.897Z,3.81
2016-11-08T04:38:27.621Z,3.83
2016-11-08T04:38:49.341Z,3.83
2016-11-08T04:39:11.060Z,3.80
2016-11-08T04:39:32.880Z,3.81
2016-11-08T04:39:54.606Z,3.76
2016-11-08T04:40:16.419Z,3.71
2016-11-08T04:40:38.139Z,3.71
2016-11-08T04:40:59.859Z,3.72
2016-11-08T04:41:21.584Z,3.76
2016-11-08T04:41:43.313Z,3.75
2016-11-08T04:42:05.047Z,3.78
2016-11-08T04:42:26.823Z,3.77
2016-11-08T04:42:48.562Z,3.80
2016-11-08T04:43:10.281Z,3.76
2016-11-08T04:43:32.007Z,3.74
2016-11-08T04:43:53.856Z,3.76
2016-11-08T04:44:15.572Z,3.82
2016-11-08T04:44:37.302Z,3.82
2016-11-08T04:44:59.110Z,3.86
2016-11-08T04:45:20.841Z,3.88
2016-11-08T04:45:42.557Z,3.81
2016-11-08T04:46:04.279Z,3.80
2016-11-08T04:46:26.020Z,3.83
2016-11-08T04:46:47.744Z,3.82
2016-11-08T04:47:09.471Z,3.87
2016-11-08T04:47:31.202Z,3.89
2016-11-08T04:47:52.928Z,3.88
2016-11-08T04:48:14.651Z,3.89
2016-11-08T04:48:36.383Z,3.87
2016-11-08T04:48:58.123Z,3.84
2016-11-08T04:49:19.845Z,3.79
2016-11-08T04:49:41.816Z,3.81
2016-11-08T04:50:03.534Z,3.79
2016-11-08T04:50:25.269Z,3.82
2016-11-08T04:50:46.989Z,3.84
2016-11-08T04:51:08.709Z,3.84
2016-11-08T04:51:30.433Z,3.84
2016-11-08T04:51:52.171Z,3.90